Time;durP1;ratioP1;P1;durP2;ratioP2;P2;SDS_P1;SDS_P2;PMS_P1;PMS_P2;Temp;Humidity;BMP_temperature;BMP_pressure;BME280_temperature;BME280_humidity;BME280_pressure;Samples;Min_cycle;Max_cycle;Signal;HPM_P1;HPM_P2
2021/03/20 00:01:14;;;;;;;51.77;30.57;;;;;;;3.03;100.00;101699.41;5034344;28;20798;-84
2021/03/20 00:03:40;;;;;;;74.87;39.50;;;;;;;3.00;100.00;101693.41;5052977;28;20419;-83
2021/03/20 00:06:07;;;;;;;60.60;36.37;;;;;;;2.96;100.00;101690.03;5052002;28;20416;-82
2021/03/20 00:08:33;;;;;;;57.93;36.20;;;;;;;3.04;100.00;101690.72;5073020;28;21014;-78
2021/03/20 00:10:59;;;;;;;48.33;30.60;;;;;;;3.06;100.00;101695.88;5071794;28;20410;-81
2021/03/20 00:13:26;;;;;;;54.30;34.83;;;;;;;3.05;100.00;101684.66;5071000;28;20399;-79
2021/03/20 00:15:53;;;;;;;56.23;35.70;;;;;;;2.86;100.00;101682.44;5073482;28;20255;-84
2021/03/20 00:18:22;;;;;;;60.70;38.40;;;;;;;2.75;100.00;101685.25;5072952;28;20387;-84
2021/03/20 00:20:49;;;;;;;60.07;37.20;;;;;;;2.75;100.00;101683.50;5073195;28;20851;-85
2021/03/20 00:23:14;;;;;;;69.47;39.37;;;;;;;2.55;100.00;101674.38;5071959;28;20415;-84
2021/03/20 00:25:40;;;;;;;64.10;39.40;;;;;;;2.68;100.00;101674.13;5072779;28;20418;-84
2021/03/20 00:28:09;;;;;;;62.83;40.40;;;;;;;2.77;100.00;101673.94;5073070;28;20156;-78
2021/03/20 00:30:35;;;;;;;77.47;42.60;;;;;;;2.73;100.00;101679.25;5071748;28;20423;-82
2021/03/20 00:33:00;;;;;;;66.80;43.00;;;;;;;2.60;100.00;101670.84;5053822;28;20425;-82
2021/03/20 00:35:26;;;;;;;61.83;35.03;;;;;;;2.66;100.00;101668.13;5070328;28;20192;-78
2021/03/20 00:37:53;;;;;;;59.30;37.20;;;;;;;2.66;100.00;101670.72;5072317;28;20152;-84
2021/03/20 00:40:24;;;;;;;59.23;35.73;;;;;;;2.58;100.00;101669.16;5072123;28;20438;-80
2021/03/20 00:42:50;;;;;;;57.67;37.40;;;;;;;2.55;100.00;101669.19;5072098;28;20541;-81
2021/03/20 00:45:16;;;;;;;54.17;34.93;;;;;;;2.40;100.00;101672.94;5073037;28;20938;-82
2021/03/20 00:47:42;;;;;;;63.80;38.20;;;;;;;2.26;100.00;101675.75;5072684;28;20481;-84
2021/03/20 00:50:12;;;;;;;65.33;36.87;;;;;;;2.37;100.00;101673.00;5072164;28;20410;-83
2021/03/20 00:52:37;;;;;;;64.47;35.87;;;;;;;2.36;100.00;101668.69;5071688;28;20978;-84
2021/03/20 00:55:03;;;;;;;57.00;37.57;;;;;;;2.26;100.00;101667.97;5071042;28;20402;-84
2021/03/20 00:57:29;;;;;;;57.10;36.90;;;;;;;2.21;100.00;101665.50;5072256;28;20168;-84
2021/03/20 00:59:54;;;;;;;56.87;35.67;;;;;;;2.30;100.00;101668.78;5071603;28;20441;-83
2021/03/20 01:02:20;;;;;;;62.13;34.10;;;;;;;2.27;100.00;101659.34;5072420;28;20204;-84
2021/03/20 01:04:45;;;;;;;58.47;32.67;;;;;;;2.26;100.00;101667.97;5072800;28;20718;-86
2021/03/20 01:07:11;;;;;;;56.53;35.23;;;;;;;2.17;100.00;101671.59;5054923;28;20216;-85
2021/03/20 01:09:37;;;;;;;57.53;36.73;;;;;;;2.07;100.00;101669.19;5071743;28;20176;-77
2021/03/20 01:12:02;;;;;;;58.00;39.20;;;;;;;2.16;100.00;101672.47;5072441;28;20164;-78
2021/03/20 01:14:28;;;;;;;63.63;36.20;;;;;;;2.16;100.00;101666.44;5072844;28;20168;-84
2021/03/20 01:16:54;;;;;;;63.30;35.80;;;;;;;2.17;100.00;101674.19;5072042;28;20407;-77
2021/03/20 01:19:20;;;;;;;59.80;33.10;;;;;;;2.23;100.00;101670.63;5054231;28;20247;-83
2021/03/20 01:21:45;;;;;;;60.20;35.03;;;;;;;2.21;100.00;101675.84;5071075;28;20199;-84
2021/03/20 01:24:11;;;;;;;56.27;32.67;;;;;;;2.27;100.00;101680.09;5072577;28;20395;-83
2021/03/20 01:26:37;;;;;;;52.43;30.90;;;;;;;2.25;100.00;101688.75;5072244;28;20204;-76
2021/03/20 01:29:02;;;;;;;56.03;32.40;;;;;;;2.17;100.00;101694.91;5075377;28;20230;-77
2021/03/20 01:31:28;;;;;;;60.83;34.97;;;;;;;2.08;100.00;101695.06;5075093;28;20441;-79
2021/03/20 01:33:54;;;;;;;66.00;32.53;;;;;;;1.96;100.00;101697.84;5075633;28;20219;-76
2021/03/20 01:36:19;;;;;;;63.80;34.67;;;;;;;2.02;100.00;101694.31;5074946;28;20215;-79
2021/03/20 01:38:45;;;;;;;57.67;36.47;;;;;;;1.95;100.00;101694.41;5074851;28;20188;-81
2021/03/20 01:41:17;;;;;;;58.40;35.80;;;;;;;1.85;100.00;101692.84;5075317;28;20196;-78
2021/03/20 01:43:43;;;;;;;59.83;36.33;;;;;;;1.87;100.00;101690.22;5074987;28;20187;-75
2021/03/20 01:46:45;;;;;;;51.97;36.83;;;;;;;1.83;100.00;101689.44;5073602;28;20826;-76
2021/03/20 01:49:17;;;;;;;56.40;35.10;;;;;;;1.72;100.00;101688.72;5074792;28;20563;-74
2021/03/20 01:51:56;;;;;;;57.07;34.77;;;;;;;1.68;100.00;101687.06;5074465;28;20924;-77
2021/03/20 01:54:24;;;;;;;54.87;35.80;;;;;;;1.77;100.00;101686.06;5075207;28;20963;-75
2021/03/20 01:56:50;;;;;;;49.73;33.00;;;;;;;1.82;100.00;101689.47;5074626;28;20415;-84
2021/03/20 01:59:17;;;;;;;59.37;36.87;;;;;;;1.93;100.00;101692.72;5075356;28;20501;-83
2021/03/20 02:01:43;;;;;;;57.63;36.60;;;;;;;1.88;100.00;101685.00;5075583;28;20484;-84
2021/03/20 02:04:09;;;;;;;53.13;32.87;;;;;;;1.98;100.00;101690.06;5075190;28;20420;-75
2021/03/20 02:06:35;;;;;;;58.70;37.07;;;;;;;2.02;100.00;101679.63;5075332;28;20220;-81
2021/03/20 02:09:05;;;;;;;64.53;35.97;;;;;;;1.98;100.00;101685.75;5075464;28;20422;-84
2021/03/20 02:11:40;;;;;;;61.70;36.93;;;;;;;1.97;100.00;101684.03;5074755;28;20176;-79
2021/03/20 02:14:30;;;;;;;59.27;39.57;;;;;;;1.97;100.00;101686.63;5074047;28;20442;-77
2021/03/20 02:17:11;;;;;;;68.77;40.20;;;;;;;1.98;100.00;101688.34;5074544;28;20418;-78
2021/03/20 02:19:54;;;;;;;75.23;44.43;;;;;;;1.91;100.00;101699.69;5073727;28;20441;-78
2021/03/20 02:22:29;;;;;;;75.67;33.60;;;;;;;1.95;100.00;101711.69;5073981;28;20872;-77
2021/03/20 02:25:01;;;;;;;60.60;36.00;;;;;;;1.99;100.00;101705.59;5074513;28;20435;-80
2021/03/20 02:28:03;;;;;;;63.40;40.23;;;;;;;1.87;100.00;101709.22;5074629;28;20426;-79
2021/03/20 02:30:50;;;;;;;61.23;36.00;;;;;;;1.87;100.00;101713.53;5073607;28;20410;-79
2021/03/20 02:34:01;;;;;;;65.80;35.67;;;;;;;1.93;100.00;101719.50;5074838;28;20773;-78
2021/03/20 02:36:50;;;;;;;52.77;31.37;;;;;;;1.94;100.00;101721.19;5053785;28;20481;-80
2021/03/20 02:40:09;;;;;;;40.47;27.77;;;;;;;1.89;100.00;101732.50;5073315;28;20410;-79
2021/03/20 02:42:48;;;;;;;48.30;26.40;;;;;;;1.76;100.00;101737.03;5012767;28;20552;-77
2021/03/20 02:45:41;;;;;;;40.27;24.73;;;;;;;1.69;100.00;101732.81;5067781;28;20429;-85
2021/03/20 02:48:31;;;;;;;57.53;33.00;;;;;;;1.55;100.00;101727.81;5073067;28;20411;-81
2021/03/20 02:50:59;;;;;;;72.03;36.97;;;;;;;1.54;100.00;101733.03;5073187;28;20494;-78
2021/03/20 02:53:33;;;;;;;65.10;37.87;;;;;;;1.59;100.00;101723.47;5074203;28;20445;-85
2021/03/20 02:56:01;;;;;;;62.03;40.90;;;;;;;1.53;100.00;101739.94;5074570;28;20422;-85
2021/03/20 02:58:32;;;;;;;58.63;35.27;;;;;;;1.54;100.00;101735.63;5074488;28;20411;-85
2021/03/20 03:01:03;;;;;;;65.77;39.90;;;;;;;1.61;100.00;101735.50;5075374;28;20492;-86
2021/03/20 03:03:32;;;;;;;67.10;43.67;;;;;;;1.63;100.00;101735.47;5074615;28;20502;-85
2021/03/20 03:06:16;;;;;;;69.23;41.13;;;;;;;1.64;100.00;101730.28;5075979;28;20394;-85
2021/03/20 03:08:47;;;;;;;55.80;35.03;;;;;;;1.60;100.00;101738.13;5073986;28;20418;-80
2021/03/20 03:11:38;;;;;;;53.13;34.13;;;;;;;1.60;100.00;101741.56;5074515;28;20391;-76
2021/03/20 03:14:09;;;;;;;51.50;32.87;;;;;;;1.54;100.00;101740.78;5073219;28;20912;-82
2021/03/20 03:16:40;;;;;;;55.93;31.80;;;;;;;1.45;100.00;101746.94;5072993;28;20420;-79
2021/03/20 03:19:14;;;;;;;52.53;30.10;;;;;;;1.48;100.00;101746.03;5068369;28;20788;-80
2021/03/20 03:21:46;;;;;;;42.53;27.10;;;;;;;1.52;100.00;101748.59;5072903;28;20532;-83
2021/03/20 03:24:22;;;;;;;33.33;21.60;;;;;;;1.49;100.00;101737.41;5072937;28;20527;-81
2021/03/20 03:26:57;;;;;;;46.37;24.77;;;;;;;1.46;100.00;101737.44;5056140;28;20430;-76
2021/03/20 03:29:27;;;;;;;36.60;19.37;;;;;;;1.43;100.00;101738.31;5073186;28;20819;-79
2021/03/20 03:31:52;;;;;;;37.27;23.33;;;;;;;1.42;100.00;101746.13;5072510;28;20407;-80
2021/03/20 03:34:54;;;;;;;59.20;30.40;;;;;;;1.37;100.00;101734.09;5073501;28;20399;-76
2021/03/20 03:37:34;;;;;;;54.70;31.40;;;;;;;1.29;100.00;101741.13;5062005;28;20187;-76
2021/03/20 03:40:08;;;;;;;53.03;31.90;;;;;;;1.11;100.00;101741.31;5072892;28;20414;-75
2021/03/20 03:42:33;;;;;;;51.70;32.43;;;;;;;1.09;100.00;101737.91;5072504;28;20552;-83
2021/03/20 03:45:00;;;;;;;57.83;34.10;;;;;;;0.93;100.00;101733.78;5073668;28;20502;-81
2021/03/20 03:47:28;;;;;;;50.90;32.70;;;;;;;1.02;100.00;101741.44;5073039;28;20176;-84
2021/03/20 03:49:58;;;;;;;53.07;35.27;;;;;;;1.10;100.00;101742.19;5072045;28;20409;-84
2021/03/20 03:52:24;;;;;;;56.73;31.97;;;;;;;1.12;100.00;101743.03;5073634;28;20417;-84
2021/03/20 03:54:50;;;;;;;51.80;29.57;;;;;;;1.08;100.00;101743.94;5073773;28;20390;-85
2021/03/20 03:57:45;;;;;;;61.27;34.40;;;;;;;1.05;100.00;101749.13;5072428;28;20168;-83
2021/03/20 04:00:14;;;;;;;57.03;34.47;;;;;;;1.09;100.00;101745.66;5072170;28;20430;-77
2021/03/20 04:02:59;;;;;;;24.77;16.07;;;;;;;1.25;100.00;101748.91;5072229;28;21000;-83
2021/03/20 04:05:32;;;;;;;52.90;33.83;;;;;;;1.28;100.00;101757.50;5072000;28;20488;-80
2021/03/20 04:08:16;;;;;;;59.10;35.60;;;;;;;1.28;100.00;101752.31;5072329;28;20477;-78
2021/03/20 04:10:41;;;;;;;60.03;32.53;;;;;;;1.26;100.00;101753.22;5069796;28;20418;-85
2021/03/20 04:13:13;;;;;;;53.47;31.40;;;;;;;1.31;100.00;101754.88;5072747;28;20419;-84
2021/03/20 04:15:38;;;;;;;55.30;31.07;;;;;;;1.33;100.00;101752.28;5073160;28;20176;-85
2021/03/20 04:18:08;;;;;;;40.10;25.97;;;;;;;1.34;100.00;101759.16;5073096;28;20432;-83
2021/03/20 04:21:04;;;;;;;45.90;27.00;;;;;;;1.35;100.00;101758.28;5071543;28;20165;-83
2021/03/20 04:23:33;;;;;;;47.07;28.17;;;;;;;1.35;100.00;101755.69;5065780;28;20480;-77
2021/03/20 04:26:08;;;;;;;56.43;30.70;;;;;;;1.36;100.00;101763.47;5068528;28;20476;-86
2021/03/20 04:29:10;;;;;;;43.80;27.47;;;;;;;1.42;100.00;101765.09;5073320;28;20410;-85
2021/03/20 04:31:56;;;;;;;48.33;30.00;;;;;;;1.40;100.00;101766.84;4997984;28;20414;-85
2021/03/20 04:34:28;;;;;;;54.90;32.03;;;;;;;1.41;100.00;101767.72;5072788;28;20395;-85
2021/03/20 04:37:08;;;;;;;51.87;30.80;;;;;;;1.48;100.00;101770.19;5072141;28;20414;-81
2021/03/20 04:39:38;;;;;;;52.03;32.20;;;;;;;1.58;100.00;101768.34;5071641;28;20410;-82
2021/03/20 04:42:04;;;;;;;54.10;32.43;;;;;;;1.62;100.00;101762.25;5071403;28;20511;-80
2021/03/20 04:44:33;;;;;;;57.23;32.63;;;;;;;1.58;100.00;101763.16;5072372;28;20395;-78
2021/03/20 04:46:59;;;;;;;52.73;31.17;;;;;;;1.56;100.00;101762.34;5071641;28;20399;-81
2021/03/20 04:49:27;;;;;;;50.67;31.00;;;;;;;1.71;100.00;101767.31;5072542;28;20395;-82
2021/03/20 04:52:06;;;;;;;45.37;32.43;;;;;;;1.76;100.00;101760.34;5072071;28;20167;-83
2021/03/20 04:54:31;;;;;;;45.00;29.87;;;;;;;1.88;100.00;101761.88;5070481;28;20415;-78
2021/03/20 04:57:22;;;;;;;55.80;32.93;;;;;;;1.94;100.00;101762.66;5071700;28;20472;-80
2021/03/20 05:00:04;;;;;;;47.20;29.17;;;;;;;2.12;100.00;101760.69;5063840;28;20156;-80
2021/03/20 05:02:35;;;;;;;45.30;24.40;;;;;;;2.16;100.00;101762.34;5071603;28;20446;-88
2021/03/20 05:05:16;;;;;;;46.87;23.87;;;;;;;2.18;100.00;101768.34;5073088;28;20499;-84
2021/03/20 05:07:43;;;;;;;48.90;25.30;;;;;;;2.15;100.00;101773.59;5069836;28;20507;-83
2021/03/20 05:10:19;;;;;;;52.20;31.20;;;;;;;2.08;100.00;101769.38;5065186;28;20407;-85
2021/03/20 05:12:48;;;;;;;36.37;21.57;;;;;;;2.09;100.00;101774.53;5072430;28;20414;-79
2021/03/20 05:15:24;;;;;;;43.90;26.33;;;;;;;2.11;100.00;101784.88;5071745;28;20415;-80
2021/03/20 05:17:50;;;;;;;51.40;31.03;;;;;;;2.18;100.00;101781.31;5072441;28;20486;-83
2021/03/20 05:20:15;;;;;;;43.73;22.53;;;;;;;2.63;100.00;101782.31;5072822;28;20411;-83
2021/03/20 05:22:41;;;;;;;40.47;22.77;;;;;;;3.45;100.00;101789.44;5070647;28;20257;-87
2021/03/20 05:25:07;;;;;;;47.20;27.50;;;;;;;3.64;100.00;101776.94;5073060;28;20936;-79
2021/03/20 05:27:34;;;;;;;46.30;26.23;;;;;;;3.29;100.00;101781.09;5072009;28;20173;-80
2021/03/20 05:30:00;;;;;;;39.90;24.57;;;;;;;3.00;100.00;101785.09;5072862;28;20927;-86
2021/03/20 05:32:31;;;;;;;43.07;22.67;;;;;;;2.84;100.00;101790.59;5072978;28;20401;-83
2021/03/20 05:34:58;;;;;;;32.50;19.20;;;;;;;2.78;100.00;101795.00;5072839;28;20439;-84
2021/03/20 05:37:33;;;;;;;52.70;29.23;;;;;;;2.70;100.00;101796.03;5071922;28;20411;-84
2021/03/20 05:39:59;;;;;;;36.53;22.93;;;;;;;2.71;100.00;101801.19;5070299;28;20414;-84
2021/03/20 05:42:24;;;;;;;49.30;27.00;;;;;;;2.81;100.00;101801.91;5071514;28;20481;-79
2021/03/20 05:45:38;;;;;;;44.63;28.53;;;;;;;2.83;100.00;101797.53;5071686;28;20219;-82
2021/03/20 05:48:28;;;;;;;43.07;25.73;;;;;;;2.79;100.00;101804.50;5052953;28;20212;-81
2021/03/20 05:51:12;;;;;;;53.57;30.73;;;;;;;2.77;100.00;101802.81;5071715;28;20939;-82
2021/03/20 05:53:58;;;;;;;37.17;24.03;;;;;;;2.89;100.00;101794.00;5069902;28;20410;-81
2021/03/20 05:56:58;;;;;;;59.77;27.00;;;;;;;3.00;100.00;101799.81;5071037;28;20498;-79
2021/03/20 05:59:31;;;;;;;33.27;19.90;;;;;;;3.15;100.00;101802.13;5070151;28;20536;-79
2021/03/20 06:02:04;;;;;;;47.07;25.97;;;;;;;3.26;100.00;101809.75;5070787;28;20796;-78
2021/03/20 06:04:32;;;;;;;40.30;22.83;;;;;;;3.28;100.00;101803.63;5070680;28;20415;-80
2021/03/20 06:07:16;;;;;;;52.10;28.87;;;;;;;3.25;100.00;101818.38;5070730;28;20596;-79
2021/03/20 06:09:44;;;;;;;36.47;22.40;;;;;;;3.39;100.00;101811.19;5052756;28;20408;-78
2021/03/20 06:12:27;;;;;;;55.00;32.20;;;;;;;3.58;100.00;101803.91;5071280;28;20423;-79
2021/03/20 06:15:07;;;;;;;60.20;34.70;;;;;;;3.80;100.00;101810.34;5074792;28;20411;-78
2021/03/20 06:17:47;;;;;;;48.67;28.10;;;;;;;3.98;100.00;101818.63;5074263;28;20406;-75
2021/03/20 06:20:22;;;;;;;64.00;38.60;;;;;;;3.94;100.00;101817.00;5074630;28;20444;-79
2021/03/20 06:23:11;;;;;;;62.87;39.90;;;;;;;4.02;100.00;101817.69;5056596;28;20967;-81
2021/03/20 06:26:10;;;;;;;63.63;40.60;;;;;;;4.05;100.00;101815.00;5074799;28;20487;-80
2021/03/20 06:28:46;;;;;;;56.20;36.73;;;;;;;3.97;100.00;101819.53;5069498;28;20509;-76
2021/03/20 06:31:15;;;;;;;45.47;28.47;;;;;;;3.91;100.00;101828.31;5070357;28;20413;-82
2021/03/20 06:33:50;;;;;;;43.27;29.00;;;;;;;3.95;100.00;101827.38;5075211;28;20835;-79
2021/03/20 06:36:29;;;;;;;74.83;45.73;;;;;;;4.07;100.00;101829.69;5074077;28;20411;-79
2021/03/20 06:39:23;;;;;;;89.63;58.77;;;;;;;4.40;100.00;101830.66;5073434;28;20417;-80
2021/03/20 06:41:53;;;;;;;89.10;56.17;;;;;;;4.64;100.00;101828.38;5055910;28;20462;-80
2021/03/20 06:44:35;;;;;;;71.47;50.03;;;;;;;4.87;100.00;101819.97;5074249;28;20943;-79
2021/03/20 06:47:01;;;;;;;70.77;44.20;;;;;;;5.09;100.00;101821.13;5073852;28;20419;-79
2021/03/20 06:49:37;;;;;;;53.53;36.43;;;;;;;5.29;100.00;101812.78;5073862;28;20476;-76
2021/03/20 06:52:06;;;;;;;56.17;34.27;;;;;;;5.48;100.00;101810.50;5054180;28;20532;-76
2021/03/20 06:54:33;;;;;;;51.70;28.70;;;;;;;5.49;100.00;101809.59;5064499;28;22158;-79
2021/03/20 06:57:00;;;;;;;40.57;28.17;;;;;;;5.54;100.00;101807.75;5055900;28;20433;-79
2021/03/20 06:59:26;;;;;;;29.83;17.90;;;;;;;5.71;100.00;101813.31;5072540;28;20801;-75
2021/03/20 07:01:54;;;;;;;39.97;26.27;;;;;;;5.80;100.00;101806.97;5069305;28;20439;-77
2021/03/20 07:04:39;;;;;;;38.00;22.13;;;;;;;5.85;100.00;101803.31;5073580;28;20808;-75
2021/03/20 07:07:23;;;;;;;42.13;27.70;;;;;;;5.99;100.00;101797.72;5072648;28;20512;-79
2021/03/20 07:09:51;;;;;;;43.73;26.27;;;;;;;6.14;100.00;101801.63;5061764;28;20434;-76
2021/03/20 07:12:21;;;;;;;51.73;31.63;;;;;;;6.37;100.00;101790.47;5073180;28;20830;-77
2021/03/20 07:14:53;;;;;;;45.57;28.90;;;;;;;6.59;100.00;101794.06;5073210;28;20437;-75
2021/03/20 07:17:22;;;;;;;35.50;23.83;;;;;;;6.65;100.00;101787.81;5072570;28;20411;-79
2021/03/20 07:20:01;;;;;;;45.83;28.10;;;;;;;6.66;100.00;101790.34;5072968;28;20414;-77
2021/03/20 07:22:30;;;;;;;45.00;29.50;;;;;;;6.72;100.00;101786.66;5066156;28;20455;-74
2021/03/20 07:24:56;;;;;;;45.63;30.23;;;;;;;6.83;100.00;101787.16;5071017;28;20842;-76
2021/03/20 07:27:35;;;;;;;37.43;26.00;;;;;;;6.88;100.00;101784.41;5072547;28;20438;-73
2021/03/20 07:30:32;;;;;;;41.90;26.30;;;;;;;6.88;100.00;101781.78;5071297;28;20421;-77
2021/03/20 07:32:57;;;;;;;43.03;28.40;;;;;;;6.91;100.00;101789.50;5071108;28;20493;-75
2021/03/20 07:35:33;;;;;;;49.53;27.50;;;;;;;7.00;100.00;101783.09;5052101;28;20483;-77
2021/03/20 07:38:15;;;;;;;36.80;22.77;;;;;;;6.94;100.00;101792.84;5069114;28;20179;-77
2021/03/20 07:40:41;;;;;;;39.73;23.77;;;;;;;7.04;100.00;101789.94;5072488;28;20438;-76
2021/03/20 07:43:11;;;;;;;31.30;21.40;;;;;;;7.22;100.00;101778.81;5072740;28;20529;-76
2021/03/20 07:45:37;;;;;;;34.90;24.33;;;;;;;7.33;100.00;101783.66;5071733;28;20839;-75
2021/03/20 07:48:05;;;;;;;42.07;26.23;;;;;;;7.42;100.00;101784.19;5072215;28;20406;-75
2021/03/20 07:50:32;;;;;;;33.20;24.20;;;;;;;7.48;100.00;101775.25;5072221;28;20435;-74
2021/03/20 07:53:19;;;;;;;34.33;24.07;;;;;;;7.64;100.00;101776.41;5071421;28;20453;-76
2021/03/20 07:56:01;;;;;;;32.27;23.77;;;;;;;7.75;100.00;101779.44;5071418;28;20778;-76
2021/03/20 07:58:38;;;;;;;29.63;20.83;;;;;;;7.72;100.00;101776.97;5071462;28;20410;-76
2021/03/20 08:01:08;;;;;;;29.03;20.57;;;;;;;7.83;100.00;101771.31;5072202;28;20939;-77
2021/03/20 08:03:50;;;;;;;42.93;26.50;;;;;;;7.80;100.00;101774.06;5072146;28;20893;-77
2021/03/20 08:06:19;;;;;;;42.40;28.47;;;;;;;7.95;100.00;101783.94;5071744;28;20494;-76
2021/03/20 08:08:46;;;;;;;31.80;24.60;;;;;;;8.14;100.00;101772.72;5072010;28;20464;-78
2021/03/20 08:11:30;;;;;;;39.23;24.10;;;;;;;8.39;100.00;101783.97;5072482;28;20429;-77
2021/03/20 08:14:04;;;;;;;26.90;17.40;;;;;;;8.60;100.00;101776.97;5056349;28;20398;-78
2021/03/20 08:16:30;;;;;;;26.73;16.80;;;;;;;8.79;100.00;101779.66;5067790;28;20477;-76
2021/03/20 08:18:57;;;;;;;29.60;20.20;;;;;;;8.90;100.00;101782.66;5071864;28;20406;-75
2021/03/20 08:21:25;;;;;;;27.80;20.17;;;;;;;9.02;100.00;101776.91;5068421;28;20196;-76
2021/03/20 08:24:06;;;;;;;35.13;23.27;;;;;;;9.18;100.00;101777.94;5069489;28;20836;-75
2021/03/20 08:26:46;;;;;;;36.03;20.63;;;;;;;9.45;100.00;101775.00;5072190;28;20449;-75
2021/03/20 08:29:28;;;;;;;24.50;16.60;;;;;;;9.70;100.00;101779.97;5071717;28;20410;-77
2021/03/20 08:32:21;;;;;;;24.30;16.87;;;;;;;9.85;100.00;101778.41;5072084;28;20437;-78
2021/03/20 08:35:05;;;;;;;26.33;18.77;;;;;;;9.92;100.00;101778.06;5071812;28;21019;-78
2021/03/20 08:37:41;;;;;;;27.10;19.90;;;;;;;10.06;100.00;101780.03;5062047;28;20430;-80
2021/03/20 08:40:15;;;;;;;29.27;21.37;;;;;;;10.17;100.00;101782.97;5070483;28;20406;-84
2021/03/20 08:43:17;;;;;;;28.73;19.90;;;;;;;10.25;100.00;101790.50;5070655;28;20461;-82
2021/03/20 08:45:55;;;;;;;30.13;20.97;;;;;;;10.25;100.00;101793.16;5070839;28;20429;-81
2021/03/20 08:48:42;;;;;;;28.53;19.57;;;;;;;10.39;100.00;101792.47;5070280;28;20444;-78
2021/03/20 08:51:40;;;;;;;28.63;20.70;;;;;;;10.47;100.00;101798.19;5071257;28;20843;-78
2021/03/20 08:54:24;;;;;;;24.87;18.90;;;;;;;10.57;100.00;101807.31;5070658;28;20411;-74
2021/03/20 08:57:04;;;;;;;27.77;19.33;;;;;;;10.70;100.00;101802.31;5071352;28;20408;-73
2021/03/20 08:59:53;;;;;;;28.20;18.67;;;;;;;10.75;100.00;101802.94;5070478;28;20403;-78
2021/03/20 09:02:25;;;;;;;28.90;18.83;;;;;;;10.82;100.00;101797.31;5060837;28;20487;-82
2021/03/20 09:05:23;;;;;;;25.17;18.37;;;;;;;10.97;100.00;101798.31;5072487;28;20406;-79
2021/03/20 09:07:58;;;;;;;21.63;13.93;;;;;;;11.07;100.00;101803.94;5070689;28;20867;-76
2021/03/20 09:10:31;;;;;;;21.50;14.63;;;;;;;11.26;100.00;101795.91;5069658;28;20406;-76
2021/03/20 09:13:22;;;;;;;18.03;12.33;;;;;;;11.39;100.00;101804.88;5071397;28;20477;-83
2021/03/20 09:15:54;;;;;;;15.30;11.00;;;;;;;11.38;100.00;101801.38;5063713;28;20403;-75
2021/03/20 09:18:21;;;;;;;17.13;11.00;;;;;;;11.36;100.00;101805.88;5061150;28;20904;-78
2021/03/20 09:20:49;;;;;;;16.47;11.37;;;;;;;11.64;100.00;101802.66;5071487;28;20403;-83
2021/03/20 09:23:28;;;;;;;15.47;11.20;;;;;;;11.96;100.00;101801.84;5071281;28;20453;-81
2021/03/20 09:25:57;;;;;;;15.33;10.67;;;;;;;11.98;100.00;101805.22;5071382;28;20422;-84
2021/03/20 09:28:29;;;;;;;15.10;10.17;;;;;;;12.47;100.00;101801.53;5071218;28;20593;-75
2021/03/20 09:30:58;;;;;;;17.67;11.40;;;;;;;12.73;97.27;101801.78;5070974;28;20401;-78
2021/03/20 09:33:27;;;;;;;19.23;10.90;;;;;;;13.16;97.31;101805.38;5070029;28;20442;-83
2021/03/20 09:36:01;;;;;;;14.00;10.63;;;;;;;13.28;91.35;101798.53;5071162;28;20865;-82
2021/03/20 09:38:35;;;;;;;13.67;10.77;;;;;;;13.41;87.14;101791.56;5071375;28;20857;-80
2021/03/20 09:41:13;;;;;;;14.73;11.00;;;;;;;13.74;90.99;101793.03;5058092;28;20846;-85
2021/03/20 09:43:41;;;;;;;14.77;10.93;;;;;;;13.93;90.63;101790.91;5033272;28;20431;-76
2021/03/20 09:46:27;;;;;;;20.13;16.63;;;;;;;14.18;94.22;101789.34;5050610;28;20396;-80
2021/03/20 09:48:54;;;;;;;16.90;12.07;;;;;;;14.59;89.00;101792.78;5052793;28;20406;-77
2021/03/20 09:51:47;;;;;;;15.83;12.07;;;;;;;14.46;87.01;101786.63;5053720;28;20396;-77
2021/03/20 09:54:23;;;;;;;19.90;14.47;;;;;;;14.03;94.56;101794.66;5073647;28;20402;-79
2021/03/20 09:57:11;;;;;;;13.60;10.93;;;;;;;14.41;98.16;101791.31;5074785;28;20980;-78
2021/03/20 09:59:37;;;;;;;15.33;11.70;;;;;;;15.05;93.47;101788.84;5074569;28;20461;-81
2021/03/20 10:02:31;;;;;;;14.10;11.50;;;;;;;16.13;83.38;101774.97;5074845;28;20941;-81
2021/03/20 10:05:23;;;;;;;13.90;11.90;;;;;;;16.39;80.54;101768.56;5073854;28;20195;-82
2021/03/20 10:08:01;;;;;;;15.10;11.23;;;;;;;16.44;77.81;101770.88;5070158;28;20499;-80
2021/03/20 10:10:27;;;;;;;14.00;11.13;;;;;;;16.87;74.48;101769.38;5074153;28;20399;-73
2021/03/20 10:12:54;;;;;;;15.63;11.27;;;;;;;17.02;71.68;101764.69;5074212;28;20842;-80
2021/03/20 10:15:37;;;;;;;15.63;12.10;;;;;;;16.55;71.63;101765.59;5074191;28;20175;-79
2021/03/20 10:18:05;;;;;;;15.27;11.80;;;;;;;16.03;71.96;101769.50;5074273;28;20387;-79
2021/03/20 10:20:43;;;;;;;16.43;12.37;;;;;;;15.85;74.76;101770.81;5073190;28;20784;-73
2021/03/20 10:23:42;;;;;;;16.90;12.60;;;;;;;16.29;77.06;101760.47;5074135;28;20603;-77
2021/03/20 10:26:26;;;;;;;16.13;13.23;;;;;;;16.90;72.77;101755.84;5073432;28;20435;-78
2021/03/20 10:28:56;;;;;;;15.40;12.30;;;;;;;18.11;68.23;101751.53;5073744;28;20413;-76
2021/03/20 10:31:23;;;;;;;14.10;11.50;;;;;;;19.37;63.41;101757.72;5073455;28;20413;-79
2021/03/20 10:33:59;;;;;;;14.93;12.30;;;;;;;20.48;58.29;101749.53;5073957;28;20781;-77
2021/03/20 10:36:34;;;;;;;15.13;12.80;;;;;;;22.47;52.34;101747.13;5074515;28;20471;-77
2021/03/20 10:39:00;;;;;;;16.63;14.43;;;;;;;23.05;48.43;101740.34;5074378;28;20892;-78
2021/03/20 10:41:32;;;;;;;16.10;14.40;;;;;;;23.02;49.46;101749.56;5056300;28;20399;-83
2021/03/20 10:44:22;;;;;;;15.63;12.83;;;;;;;22.71;50.45;101759.88;5074190;28;20176;-80
2021/03/20 10:46:48;;;;;;;13.80;12.23;;;;;;;21.18;52.66;101764.25;5073905;28;20486;-80
2021/03/20 10:49:18;;;;;;;15.97;12.73;;;;;;;19.94;57.64;101767.69;5073896;28;20391;-76
2021/03/20 10:51:48;;;;;;;17.57;13.83;;;;;;;19.77;60.22;101770.19;5074191;28;20740;-79
2021/03/20 10:54:24;;;;;;;18.10;13.63;;;;;;;20.09;59.42;101769.97;5074189;28;20387;-81
2021/03/20 10:56:53;;;;;;;17.73;15.17;;;;;;;18.50;62.35;101775.78;5074465;28;20728;-80
2021/03/20 10:59:32;;;;;;;16.93;13.77;;;;;;;17.42;67.51;101783.66;5073591;28;20452;-77
2021/03/20 11:01:57;;;;;;;14.77;12.53;;;;;;;17.06;71.06;101794.47;5074072;28;20528;-78
2021/03/20 11:04:32;;;;;;;14.40;12.53;;;;;;;16.19;76.95;101804.53;5073713;28;20906;-76
2021/03/20 11:07:00;;;;;;;20.93;14.37;;;;;;;15.49;87.60;101807.78;5073743;28;20310;-82
2021/03/20 11:09:28;;;;;;;19.27;13.27;;;;;;;15.72;87.51;101806.19;5073883;28;20402;-79
2021/03/20 11:12:03;;;;;;;16.77;14.40;;;;;;;15.62;89.85;101817.53;5073617;28;20395;-80
2021/03/20 11:14:29;;;;;;;19.10;14.63;;;;;;;16.46;85.84;101803.44;5073513;28;20398;-77
2021/03/20 11:17:01;;;;;;;16.10;13.80;;;;;;;16.69;82.26;101807.91;5073598;28;20799;-79
2021/03/20 11:19:33;;;;;;;15.57;13.40;;;;;;;17.06;81.37;101784.72;5073219;28;20403;-77
2021/03/20 11:22:15;;;;;;;20.23;13.57;;;;;;;16.82;81.73;101791.91;5069763;28;20463;-77
2021/03/20 11:24:44;;;;;;;15.77;13.00;;;;;;;16.60;84.72;101796.16;5067251;28;20418;-78
2021/03/20 11:27:20;;;;;;;18.83;13.90;;;;;;;15.71;90.81;101796.50;5073528;28;20786;-77
2021/03/20 11:29:48;;;;;;;18.97;12.20;;;;;;;15.26;97.90;101797.91;5072936;28;20429;-78
2021/03/20 11:32:35;;;;;;;14.43;11.50;;;;;;;14.91;100.00;101803.84;5071491;28;20423;-78
2021/03/20 11:35:15;;;;;;;23.30;12.37;;;;;;;15.29;100.00;101792.41;5071159;28;20429;-79
2021/03/20 11:37:43;;;;;;;17.30;11.67;;;;;;;16.61;96.44;101786.38;5072625;28;20433;-80
2021/03/20 11:40:24;;;;;;;19.40;12.60;;;;;;;18.37;79.32;101769.84;5072837;28;20398;-75
2021/03/20 11:42:53;;;;;;;14.40;11.50;;;;;;;20.19;68.54;101758.34;5072976;28;20450;-75